Time;durP1;ratioP1;P1;durP2;ratioP2;P2;SDS_P1;SDS_P2;PMS_P1;PMS_P2;Temp;Humidity;BMP_temperature;BMP_pressure;BME280_temperature;BME280_humidity;BME280_pressure;Samples;Min_cycle;Max_cycle;Signal;HPM_P1;HPM_P2
2022/09/23 00:00:39;;;;;;;2.67;1.70;;;9.30;99.90;;;;;;5094409;28;20301;-43
2022/09/23 00:03:05;;;;;;;2.80;1.50;;;9.20;99.90;;;;;;5094478;28;20182;-43
2022/09/23 00:05:31;;;;;;;1.80;1.30;;;9.20;99.90;;;;;;5094636;28;20177;-43
2022/09/23 00:07:58;;;;;;;2.53;1.20;;;9.20;99.90;;;;;;5093996;28;20202;-43
2022/09/23 00:10:26;;;;;;;7.57;1.60;;;9.10;99.90;;;;;;5094011;28;20216;-45
2022/09/23 00:12:53;;;;;;;1.67;1.40;;;9.10;99.90;;;;;;5094584;28;20196;-43
2022/09/23 00:15:20;;;;;;;2.37;1.43;;;9.10;99.90;;;;;;5094195;28;20631;-44
2022/09/23 00:17:46;;;;;;;2.50;1.30;;;9.10;99.90;;;;;;5094186;28;20564;-44
2022/09/23 00:20:12;;;;;;;2.40;1.27;;;9.00;99.90;;;;;;5095296;28;20256;-43
2022/09/23 00:22:38;;;;;;;3.37;1.70;;;9.00;99.90;;;;;;5094568;28;20185;-45
2022/09/23 00:25:05;;;;;;;1.77;1.53;;;9.00;99.90;;;;;;5094191;28;20185;-44
2022/09/23 00:27:32;;;;;;;2.97;1.87;;;9.00;99.90;;;;;;5093971;28;20210;-43
2022/09/23 00:29:58;;;;;;;3.13;1.50;;;8.90;99.90;;;;;;5094001;28;20213;-44
2022/09/23 00:32:24;;;;;;;1.30;1.20;;;8.90;99.90;;;;;;5094095;28;20175;-44
2022/09/23 00:34:51;;;;;;;2.37;1.63;;;8.90;99.90;;;;;;5094121;28;20181;-44
2022/09/23 00:37:17;;;;;;;2.67;1.53;;;8.90;99.90;;;;;;5094077;28;20199;-43
2022/09/23 00:39:44;;;;;;;3.20;1.53;;;8.80;99.90;;;;;;5093883;28;20184;-44
2022/09/23 00:42:16;;;;;;;5.33;1.73;;;8.80;99.90;;;;;;5094477;28;20560;-39
2022/09/23 00:44:46;;;;;;;2.23;1.90;;;8.80;99.90;;;;;;5094100;28;20227;-40
2022/09/23 00:47:18;;;;;;;5.77;2.17;;;8.80;99.90;;;;;;5093805;28;20190;-38
2022/09/23 00:49:46;;;;;;;3.10;2.00;;;8.80;99.90;;;;;;5075272;28;20178;-38
2022/09/23 00:52:15;;;;;;;2.00;1.67;;;8.70;99.90;;;;;;5093859;28;20252;-38
2022/09/23 00:54:42;;;;;;;4.93;1.80;;;8.80;99.90;;;;;;5093672;28;20267;-40
2022/09/23 00:57:10;;;;;;;3.13;1.70;;;8.80;99.90;;;;;;5093404;28;20200;-40
2022/09/23 00:59:36;;;;;;;2.70;2.00;;;8.70;99.90;;;;;;5093338;28;20190;-39
2022/09/23 01:02:03;;;;;;;3.33;2.00;;;8.70;99.90;;;;;;5075221;28;20183;-39
2022/09/23 01:04:29;;;;;;;3.33;1.87;;;8.70;99.90;;;;;;5093609;28;20630;-38
2022/09/23 01:06:54;;;;;;;2.83;1.93;;;8.70;99.90;;;;;;5093333;28;20199;-38
2022/09/23 01:09:22;;;;;;;3.13;1.87;;;8.70;99.90;;;;;;5093349;28;20176;-41
2022/09/23 01:12:17;;;;;;;2.77;2.07;;;8.60;99.90;;;;;;5093301;28;20668;-41
2022/09/23 01:15:14;;;;;;;2.23;1.80;;;8.70;99.90;;;;;;5093489;28;20351;-39
2022/09/23 01:18:23;;;;;;;5.87;2.10;;;8.60;99.90;;;;;;5046030;28;20255;-41
2022/09/23 01:21:14;;;;;;;3.77;2.17;;;8.60;99.90;;;;;;5044762;28;20193;-41
2022/09/23 01:24:14;;;;;;;4.50;2.30;;;8.60;99.90;;;;;;5093404;28;20176;-40
2022/09/23 01:26:48;;;;;;;5.20;2.10;;;8.60;99.90;;;;;;5093545;28;20206;-40
2022/09/23 01:29:48;;;;;;;2.70;1.90;;;8.60;99.90;;;;;;5094051;28;20612;-40
2022/09/23 01:32:25;;;;;;;2.20;1.80;;;8.50;99.90;;;;;;5093176;28;20190;-40
2022/09/23 01:35:02;;;;;;;2.20;1.77;;;8.50;99.90;;;;;;5093380;28;20236;-41
2022/09/23 01:37:47;;;;;;;2.90;2.00;;;8.50;99.90;;;;;;5093466;28;20202;-40
2022/09/23 01:40:39;;;;;;;3.10;1.87;;;8.50;99.90;;;;;;5093101;28;20630;-37
2022/09/23 01:43:21;;;;;;;4.00;1.93;;;8.40;99.90;;;;;;5093208;28;20697;-39
2022/09/23 01:45:47;;;;;;;1.97;1.60;;;8.40;99.90;;;;;;5095267;28;20263;-38
2022/09/23 01:48:38;;;;;;;2.00;1.70;;;8.40;99.90;;;;;;5093176;28;20531;-40
2022/09/23 01:51:15;;;;;;;2.40;1.90;;;8.40;99.90;;;;;;5093283;28;20252;-41
2022/09/23 01:53:48;;;;;;;2.60;1.93;;;8.30;99.90;;;;;;5093315;28;20161;-40
2022/09/23 01:56:19;;;;;;;2.73;1.80;;;8.30;99.90;;;;;;5093230;28;20169;-43
2022/09/23 01:59:04;;;;;;;3.13;1.80;;;8.30;99.90;;;;;;5074614;28;20239;-38
2022/09/23 02:01:40;;;;;;;2.13;1.80;;;8.30;99.90;;;;;;5093203;28;20194;-39
2022/09/23 02:04:11;;;;;;;2.03;1.83;;;8.20;99.90;;;;;;5093047;28;20166;-39
2022/09/23 02:06:54;;;;;;;2.50;1.80;;;8.20;99.90;;;;;;5075322;28;20246;-40
2022/09/23 02:09:27;;;;;;;2.57;2.13;;;8.10;99.90;;;;;;5093012;28;20164;-39
2022/09/23 02:11:59;;;;;;;2.43;2.00;;;8.10;99.90;;;;;;5093069;28;20195;-42
2022/09/23 02:14:33;;;;;;;3.60;1.97;;;8.10;99.90;;;;;;5093075;28;20168;-39
2022/09/23 02:17:07;;;;;;;4.07;2.10;;;8.10;99.90;;;;;;5093166;28;20187;-40
2022/09/23 02:19:47;;;;;;;4.67;2.00;;;8.00;99.90;;;;;;5092817;28;20179;-41
2022/09/23 02:22:28;;;;;;;2.93;2.00;;;8.00;99.90;;;;;;5093003;28;20226;-39
2022/09/23 02:24:56;;;;;;;2.27;1.90;;;8.00;99.90;;;;;;5092724;28;20179;-37
2022/09/23 02:27:31;;;;;;;3.17;2.30;;;8.00;99.90;;;;;;5092646;28;20579;-39
2022/09/23 02:30:17;;;;;;;3.17;1.57;;;8.00;99.90;;;;;;5092794;28;20611;-41
2022/09/23 02:32:52;;;;;;;3.50;2.00;;;8.00;99.90;;;;;;5095121;28;20163;-42
2022/09/23 02:35:41;;;;;;;2.90;2.27;;;7.90;99.90;;;;;;5096543;28;20175;-41
2022/09/23 02:38:33;;;;;;;3.40;1.90;;;7.90;99.90;;;;;;5096743;28;20221;-39
2022/09/23 02:41:09;;;;;;;2.30;2.00;;;7.90;99.90;;;;;;5097013;28;20686;-40
2022/09/23 02:43:50;;;;;;;1.70;1.57;;;7.80;99.90;;;;;;5096979;28;20162;-40
2022/09/23 02:46:16;;;;;;;3.17;2.00;;;7.80;99.90;;;;;;5096671;28;20159;-41
2022/09/23 02:48:48;;;;;;;2.40;2.10;;;7.90;99.90;;;;;;5078241;28;20521;-42
2022/09/23 02:51:14;;;;;;;2.00;1.80;;;7.80;99.90;;;;;;5096336;28;20657;-41
2022/09/23 02:53:39;;;;;;;2.43;2.00;;;7.80;99.90;;;;;;5078273;28;20179;-41
2022/09/23 02:56:19;;;;;;;10.17;2.30;;;7.80;99.90;;;;;;5096251;28;20183;-41
2022/09/23 02:58:45;;;;;;;3.53;1.90;;;7.70;99.90;;;;;;5095910;28;20182;-39
2022/09/23 03:01:51;;;;;;;3.17;2.03;;;7.70;99.90;;;;;;5096168;28;20179;-38
2022/09/23 03:04:30;;;;;;;2.43;1.87;;;7.70;99.90;;;;;;5095534;28;20183;-40
2022/09/23 03:07:31;;;;;;;2.83;2.00;;;7.70;99.90;;;;;;5096553;28;20275;-40
2022/09/23 03:10:35;;;;;;;5.47;1.83;;;7.70;99.90;;;;;;5042291;28;20243;-39
2022/09/23 03:13:04;;;;;;;5.00;2.10;;;7.60;99.90;;;;;;5040037;28;20183;-39
2022/09/23 03:15:54;;;;;;;2.77;2.20;;;7.60;99.90;;;;;;5095856;28;20171;-39
2022/09/23 03:18:33;;;;;;;3.63;2.10;;;7.60;99.90;;;;;;5095475;28;20207;-42
2022/09/23 03:21:25;;;;;;;3.20;2.07;;;7.60;99.90;;;;;;5095730;28;20163;-41
2022/09/23 03:23:53;;;;;;;3.03;2.57;;;7.50;99.90;;;;;;5084348;28;20244;-40
2022/09/23 03:26:24;;;;;;;2.90;2.53;;;7.50;99.90;;;;;;5095727;28;20592;-39
2022/09/23 03:28:51;;;;;;;2.93;2.17;;;7.60;99.90;;;;;;5099137;28;20194;-40
2022/09/23 03:31:17;;;;;;;5.03;2.57;;;7.50;99.90;;;;;;5095302;28;20739;-41
2022/09/23 03:33:49;;;;;;;2.67;1.97;;;7.50;99.90;;;;;;5095970;28;20301;-39
2022/09/23 03:37:01;;;;;;;3.63;2.30;;;7.40;99.90;;;;;;5095572;28;20177;-39
2022/09/23 03:39:14;;;;;;;2.93;2.50;;;7.40;99.90;;;;;;5084246;28;20357;-39
2022/09/23 03:41:48;;;;;;;3.47;2.40;;;7.40;99.90;;;;;;5095527;28;20168;-40
2022/09/23 03:44:16;;;;;;;5.63;2.20;;;7.40;99.90;;;;;;5094380;28;20169;-41
2022/09/23 03:46:48;;;;;;;3.53;2.50;;;7.30;99.90;;;;;;5095224;28;20199;-41
2022/09/23 03:49:17;;;;;;;3.23;2.17;;;7.30;99.90;;;;;;5095346;28;20659;-36
2022/09/23 03:51:42;;;;;;;4.20;2.30;;;7.30;99.90;;;;;;5094735;28;20204;-37
2022/09/23 03:54:08;;;;;;;2.70;2.07;;;7.30;99.90;;;;;;5094860;28;20232;-38
2022/09/23 03:56:34;;;;;;;3.37;2.10;;;7.30;99.90;;;;;;5094898;28;20660;-41
2022/09/23 03:59:00;;;;;;;8.37;2.37;;;7.20;99.90;;;;;;5094602;28;20285;-39
2022/09/23 04:01:25;;;;;;;5.57;2.00;;;7.30;99.90;;;;;;5094782;28;20561;-40
2022/09/23 04:03:52;;;;;;;4.27;2.20;;;7.20;99.90;;;;;;5095126;28;20225;-40
2022/09/23 04:06:17;;;;;;;5.43;2.30;;;7.20;99.90;;;;;;5094667;28;20171;-38
2022/09/23 04:08:43;;;;;;;3.57;2.30;;;7.20;99.90;;;;;;5095033;28;20194;-39
2022/09/23 04:11:09;;;;;;;2.67;1.90;;;7.20;99.90;;;;;;5094756;28;20736;-41
2022/09/23 04:13:34;;;;;;;3.70;1.90;;;7.10;99.90;;;;;;5094592;28;20521;-42
2022/09/23 04:16:00;;;;;;;6.63;2.37;;;7.10;99.90;;;;;;5094403;28;20224;-41
2022/09/23 04:18:26;;;;;;;2.30;2.10;;;7.10;99.90;;;;;;5094429;28;20202;-39
2022/09/23 04:20:56;;;;;;;2.60;2.10;;;7.10;99.90;;;;;;5076146;28;20178;-40
2022/09/23 04:23:23;;;;;;;3.27;2.10;;;7.00;99.90;;;;;;5094482;28;20166;-39
2022/09/23 04:25:49;;;;;;;5.03;1.90;;;7.00;99.90;;;;;;5094261;28;20175;-39
2022/09/23 04:28:15;;;;;;;2.00;1.80;;;7.00;99.90;;;;;;5075969;28;20214;-40
2022/09/23 04:30:42;;;;;;;2.50;1.73;;;7.00;99.90;;;;;;5076308;28;20290;-40
2022/09/23 04:33:09;;;;;;;4.13;2.30;;;6.90;99.90;;;;;;5094099;28;20174;-40
2022/09/23 04:35:36;;;;;;;2.97;2.10;;;6.90;99.90;;;;;;5094529;28;20175;-40
2022/09/23 04:38:02;;;;;;;4.30;2.13;;;6.80;99.90;;;;;;5094850;28;20248;-41
2022/09/23 04:40:28;;;;;;;3.17;2.20;;;6.90;99.90;;;;;;5094367;28;20533;-39
2022/09/23 04:42:54;;;;;;;3.33;2.20;;;6.80;99.90;;;;;;5094024;28;20178;-39
2022/09/23 04:45:19;;;;;;;2.30;2.10;;;6.80;99.90;;;;;;5094011;28;20214;-39
2022/09/23 04:47:45;;;;;;;2.97;1.80;;;6.80;99.90;;;;;;5093874;28;20233;-41
2022/09/23 04:50:10;;;;;;;2.97;2.17;;;6.70;99.90;;;;;;5094036;28;20339;-40
2022/09/23 04:52:36;;;;;;;4.80;2.17;;;6.70;99.90;;;;;;5094064;28;20171;-41
2022/09/23 04:55:01;;;;;;;5.37;2.20;;;6.70;99.90;;;;;;5093725;28;20171;-40
2022/09/23 04:57:28;;;;;;;2.83;2.23;;;6.70;99.90;;;;;;5094143;28;20201;-41
2022/09/23 04:59:55;;;;;;;1.90;1.80;;;6.70;99.90;;;;;;5093654;28;20662;-40
2022/09/23 05:02:21;;;;;;;4.57;2.10;;;6.70;99.90;;;;;;5078134;28;20174;-44
2022/09/23 05:04:47;;;;;;;6.33;2.70;;;6.70;99.90;;;;;;5096850;28;20174;-42
2022/09/23 05:07:12;;;;;;;4.00;1.80;;;6.60;99.90;;;;;;5097001;28;20352;-43
2022/09/23 05:09:38;;;;;;;4.83;2.13;;;6.60;99.90;;;;;;5097077;28;20179;-44
2022/09/23 05:12:04;;;;;;;9.20;2.00;;;6.60;99.90;;;;;;5098260;28;20178;-43
2022/09/23 05:14:29;;;;;;;3.97;2.23;;;6.60;99.90;;;;;;5097185;28;20224;-44
2022/09/23 05:16:55;;;;;;;4.50;2.37;;;6.60;99.90;;;;;;5097026;28;20195;-44
2022/09/23 05:19:21;;;;;;;3.80;2.47;;;6.60;99.90;;;;;;5079347;28;20179;-41
2022/09/23 05:21:46;;;;;;;3.83;2.43;;;6.50;99.90;;;;;;5096664;28;20189;-42
2022/09/23 05:24:12;;;;;;;3.33;2.20;;;6.50;99.90;;;;;;5097372;28;20179;-43
2022/09/23 05:26:38;;;;;;;5.10;2.20;;;6.50;99.90;;;;;;5077805;28;20194;-43
2022/09/23 05:29:04;;;;;;;4.03;2.07;;;6.50;99.90;;;;;;5096423;28;20190;-44
2022/09/23 05:31:29;;;;;;;2.67;1.97;;;6.50;99.90;;;;;;5078416;28;20273;-41
2022/09/23 05:33:57;;;;;;;3.27;1.90;;;6.50;99.90;;;;;;5096334;28;20204;-44
2022/09/23 05:36:25;;;;;;;1.97;1.87;;;6.50;99.90;;;;;;5096561;28;20170;-44
2022/09/23 05:38:51;;;;;;;3.97;2.17;;;6.50;99.90;;;;;;5078749;28;20179;-44
2022/09/23 05:41:19;;;;;;;3.03;2.20;;;6.50;99.90;;;;;;5096203;28;20220;-45
2022/09/23 05:43:46;;;;;;;2.30;2.10;;;6.50;99.90;;;;;;5096553;28;20182;-43
2022/09/23 05:46:17;;;;;;;3.60;2.17;;;6.50;99.90;;;;;;5096241;28;20183;-45
2022/09/23 05:48:46;;;;;;;4.17;2.43;;;6.50;99.90;;;;;;5096428;28;20167;-45
2022/09/23 05:51:17;;;;;;;2.53;2.30;;;6.50;99.90;;;;;;5096333;28;20194;-44
2022/09/23 05:53:44;;;;;;;3.73;2.60;;;6.60;99.90;;;;;;5096326;28;20162;-44
2022/09/23 05:56:11;;;;;;;7.40;2.57;;;6.60;99.90;;;;;;5095467;28;20227;-45
2022/09/23 05:58:36;;;;;;;3.83;2.40;;;6.60;99.90;;;;;;5096309;28;20202;-43
2022/09/23 06:01:10;;;;;;;5.30;2.67;;;6.70;99.90;;;;;;5095802;28;20217;-43
2022/09/23 06:03:36;;;;;;;3.90;2.40;;;6.70;99.90;;;;;;5077339;28;20174;-39
2022/09/23 06:06:02;;;;;;;4.63;2.23;;;6.80;99.90;;;;;;5093639;28;20183;-42
2022/09/23 06:08:27;;;;;;;4.53;2.80;;;6.80;99.90;;;;;;5096851;28;20256;-42
2022/09/23 06:10:53;;;;;;;7.37;2.30;;;6.90;99.90;;;;;;5097176;28;20285;-44
2022/09/23 06:13:18;;;;;;;4.97;2.50;;;7.00;99.90;;;;;;5097067;28;20174;-43
2022/09/23 06:15:44;;;;;;;3.93;2.70;;;7.10;99.90;;;;;;5097238;28;20224;-42
2022/09/23 06:18:10;;;;;;;7.17;2.60;;;7.10;99.90;;;;;;5096990;28;20226;-44
2022/09/23 06:20:36;;;;;;;5.00;3.10;;;7.20;99.90;;;;;;5097269;28;20188;-41
2022/09/23 06:23:07;;;;;;;5.10;2.90;;;7.30;99.90;;;;;;5096946;28;20548;-44
2022/09/23 06:25:34;;;;;;;4.80;3.17;;;7.40;99.90;;;;;;5096740;28;20178;-43
2022/09/23 06:28:00;;;;;;;5.50;2.87;;;7.50;99.90;;;;;;5096878;28;20690;-44
2022/09/23 06:30:26;;;;;;;3.97;2.70;;;7.60;99.90;;;;;;5096610;28;20198;-45
2022/09/23 06:32:54;;;;;;;3.57;2.90;;;7.70;99.90;;;;;;5096491;28;20174;-44
2022/09/23 06:35:22;;;;;;;6.53;3.00;;;7.90;99.90;;;;;;5097223;28;20398;-42
2022/09/23 06:37:48;;;;;;;8.10;3.13;;;8.00;99.90;;;;;;5096519;28;20187;-44
2022/09/23 06:40:14;;;;;;;3.57;3.07;;;8.20;99.90;;;;;;5096838;28;20645;-43
2022/09/23 06:42:40;;;;;;;5.10;3.40;;;8.30;99.90;;;;;;5096714;28;20687;-40
2022/09/23 06:45:06;;;;;;;5.10;3.17;;;8.40;99.90;;;;;;5096795;28;20182;-43
2022/09/23 06:47:32;;;;;;;9.00;3.17;;;8.50;99.90;;;;;;5096751;28;20203;-44
2022/09/23 06:49:57;;;;;;;3.60;2.97;;;8.60;99.90;;;;;;5078646;28;20578;-44
2022/09/23 06:52:23;;;;;;;6.13;2.90;;;8.80;99.90;;;;;;5096410;28;20514;-43
2022/09/23 06:54:49;;;;;;;8.53;3.07;;;8.90;99.90;;;;;;5097270;28;20582;-43
2022/09/23 06:57:15;;;;;;;4.77;3.00;;;9.00;99.90;;;;;;5096748;28;20201;-43
2022/09/23 06:59:41;;;;;;;5.37;2.83;;;9.20;99.90;;;;;;5097237;28;20183;-44
2022/09/23 07:02:11;;;;;;;5.13;3.23;;;9.30;99.90;;;;;;5096798;28;20551;-43
2022/09/23 07:04:37;;;;;;;5.00;3.03;;;9.40;99.90;;;;;;5096120;28;20163;-42
2022/09/23 07:07:02;;;;;;;5.67;3.20;;;9.50;99.90;;;;;;5096227;28;20206;-42
2022/09/23 07:09:28;;;;;;;4.63;3.17;;;9.60;99.90;;;;;;5096088;28;20186;-43
2022/09/23 07:11:54;;;;;;;4.13;3.17;;;9.70;99.90;;;;;;5095711;28;20301;-44
2022/09/23 07:14:19;;;;;;;3.00;2.70;;;9.80;99.90;;;;;;5099007;28;20201;-45
2022/09/23 07:16:48;;;;;;;5.43;2.97;;;9.90;99.90;;;;;;5100457;28;20198;-42
2022/09/23 07:19:13;;;;;;;5.43;3.07;;;9.90;99.90;;;;;;5099346;28;20171;-44
2022/09/23 07:21:39;;;;;;;10.90;3.93;;;10.00;99.90;;;;;;5099970;28;20209;-43
2022/09/23 07:24:05;;;;;;;8.87;2.90;;;10.10;99.90;;;;;;5099337;28;20175;-42
2022/09/23 07:26:32;;;;;;;7.33;3.10;;;10.20;99.90;;;;;;5099621;28;20648;-45
2022/09/23 07:29:03;;;;;;;3.97;2.83;;;10.30;99.90;;;;;;5099266;28;20183;-41
2022/09/23 07:31:30;;;;;;;5.67;2.70;;;10.40;99.90;;;;;;5098825;28;20191;-41
2022/09/23 07:33:57;;;;;;;5.03;3.20;;;10.50;99.90;;;;;;5080915;28;20538;-42
2022/09/23 07:36:26;;;;;;;6.20;3.00;;;10.60;99.90;;;;;;5100342;28;20186;-41
2022/09/23 07:38:54;;;;;;;6.93;3.13;;;10.60;99.90;;;;;;5100301;28;20191;-44
2022/09/23 07:41:19;;;;;;;4.73;3.13;;;10.70;99.90;;;;;;5099396;28;20679;-43
2022/09/23 07:43:46;;;;;;;5.83;3.20;;;10.80;99.90;;;;;;5098506;28;20178;-42
2022/09/23 07:46:15;;;;;;;3.20;2.57;;;10.90;99.90;;;;;;5077256;28;20183;-37
2022/09/23 07:48:41;;;;;;;6.43;2.80;;;11.00;99.90;;;;;;5095194;28;20229;-38
2022/09/23 07:51:15;;;;;;;5.43;2.73;;;11.10;99.90;;;;;;5094991;28;20228;-37
2022/09/23 07:53:40;;;;;;;5.20;3.07;;;11.20;99.90;;;;;;5095062;28;20244;-38
2022/09/23 07:56:06;;;;;;;5.20;3.37;;;11.30;99.90;;;;;;5094823;28;20250;-40
2022/09/23 07:58:33;;;;;;;4.40;3.30;;;11.40;99.90;;;;;;5094721;28;20222;-40
2022/09/23 08:01:04;;;;;;;10.17;4.33;;;11.50;99.90;;;;;;5076452;28;20213;-38
2022/09/23 08:03:30;;;;;;;5.57;3.83;;;11.70;99.90;;;;;;5076501;28;20280;-39
2022/09/23 08:06:04;;;;;;;4.40;3.20;;;11.80;99.90;;;;;;5095162;28;20204;-39
2022/09/23 08:08:29;;;;;;;3.70;3.00;;;11.90;99.90;;;;;;5094771;28;20252;-39
2022/09/23 08:11:03;;;;;;;6.77;3.93;;;12.00;99.90;;;;;;5094685;28;20230;-40
2022/09/23 08:13:29;;;;;;;8.20;3.53;;;12.20;99.90;;;;;;5094531;28;20258;-38
2022/09/23 08:15:55;;;;;;;8.13;3.27;;;12.30;99.90;;;;;;5094401;28;20174;-40
2022/09/23 08:18:21;;;;;;;6.13;3.33;;;12.50;99.90;;;;;;5094382;28;20697;-40
2022/09/23 08:20:46;;;;;;;7.63;3.80;;;12.60;99.90;;;;;;5094565;28;20186;-41
2022/09/23 08:23:13;;;;;;;5.10;3.53;;;12.80;99.90;;;;;;5076378;28;20187;-38
2022/09/23 08:25:40;;;;;;;7.80;3.20;;;12.90;99.90;;;;;;5094550;28;20296;-42
2022/09/23 08:28:05;;;;;;;9.57;3.50;;;12.90;99.90;;;;;;5094927;28;20197;-37
2022/09/23 08:38:56;;;;;;;8.60;3.70;;;13.20;99.90;;;;;;5031117;28;20213;-38
2022/09/23 08:42:02;;;;;;;7.10;4.10;;;13.30;99.90;;;;;;5034250;28;20239;-38
2022/09/23 08:45:06;;;;;;;9.90;3.77;;;13.40;99.90;;;;;;5033731;28;20177;-40
2022/09/23 08:47:42;;;;;;;9.40;3.70;;;13.50;99.90;;;;;;5044526;28;20283;-41
2022/09/23 08:50:19;;;;;;;5.37;2.77;;;13.60;99.90;;;;;;5053823;28;20204;-40
2022/09/23 08:52:58;;;;;;;9.40;3.03;;;13.70;99.90;;;;;;5053774;28;20172;-42
2022/09/23 08:55:34;;;;;;;8.43;3.13;;;13.80;99.90;;;;;;5053365;28;20652;-38
2022/09/23 08:58:37;;;;;;;5.80;3.87;;;13.90;99.90;;;;;;5053599;28;20192;-40
2022/09/23 09:01:06;;;;;;;10.03;3.50;;;14.00;99.90;;;;;;5053294;28;20180;-39
2022/09/23 09:03:43;;;;;;;11.37;3.80;;;14.20;99.90;;;;;;5035913;28;20184;-40
2022/09/23 09:06:29;;;;;;;8.73;3.53;;;14.30;99.90;;;;;;5053540;28;20198;-41
2022/09/23 09:08:59;;;;;;;6.10;3.77;;;14.50;99.90;;;;;;5053662;28;20167;-39
2022/09/23 09:11:34;;;;;;;7.47;4.30;;;14.70;99.90;;;;;;5053392;28;20211;-42
2022/09/23 09:14:16;;;;;;;11.30;4.20;;;14.90;99.90;;;;;;5053464;28;20168;-40
2022/09/23 09:16:46;;;;;;;7.70;4.03;;;15.00;99.90;;;;;;5053384;28;20295;-43
2022/09/23 09:19:54;;;;;;;6.17;5.37;;;15.10;99.90;;;;;;5053460;28;20180;-38
2022/09/23 09:22:47;;;;;;;4.70;3.73;;;15.30;99.90;;;;;;5052868;28;20180;-40
2022/09/23 09:25:23;;;;;;;8.97;4.60;;;15.40;99.90;;;;;;5053291;28;20190;-39
2022/09/23 09:27:49;;;;;;;8.80;4.53;;;15.60;99.90;;;;;;5055026;28;20222;-45
2022/09/23 09:30:16;;;;;;;13.10;4.60;;;15.80;99.90;;;;;;5059030;28;20233;-44
2022/09/23 09:32:45;;;;;;;7.03;4.47;;;15.90;99.90;;;;;;5061091;28;20187;-46
2022/09/23 09:35:35;;;;;;;7.30;3.30;;;16.10;99.90;;;;;;5059141;28;20206;-43
2022/09/23 09:38:01;;;;;;;5.97;3.60;;;16.20;99.90;;;;;;5059142;28;20223;-42
2022/09/23 09:40:27;;;;;;;4.77;3.17;;;16.30;99.90;;;;;;5059802;28;20177;-44
2022/09/23 09:42:52;;;;;;;5.20;3.00;;;16.40;99.90;;;;;;5063050;28;20187;-45
2022/09/23 09:45:55;;;;;;;8.70;2.90;;;16.60;99.90;;;;;;5064964;28;20243;-43
2022/09/23 09:48:38;;;;;;;4.50;2.70;;;16.70;99.90;;;;;;5046312;28;20528;-44
2022/09/23 09:51:21;;;;;;;2.70;2.30;;;16.80;99.90;;;;;;5044886;28;20303;-43
2022/09/23 09:53:50;;;;;;;8.10;2.60;;;16.90;99.90;;;;;;5063393;28;20156;-46
2022/09/23 09:56:21;;;;;;;5.77;2.70;;;17.10;99.90;;;;;;5063848;28;20164;-44
2022/09/23 09:58:54;;;;;;;2.87;2.57;;;17.20;99.90;;;;;;5045871;28;20168;-44
2022/09/23 10:01:29;;;;;;;5.73;2.77;;;17.20;99.90;;;;;;5063312;28;20625;-46
2022/09/23 10:03:57;;;;;;;2.73;2.17;;;17.40;99.90;;;;;;5063953;28;20551;-46
2022/09/23 10:06:27;;;;;;;7.90;2.93;;;17.50;99.90;;;;;;5063046;28;20184;-45
2022/09/23 10:09:03;;;;;;;4.43;2.50;;;17.60;99.90;;;;;;5062847;28;20188;-44
2022/09/23 10:11:30;;;;;;;3.13;2.60;;;17.70;99.90;;;;;;5062945;28;20195;-43
2022/09/23 10:13:59;;;;;;;3.63;2.30;;;17.90;99.90;;;;;;5062505;28;20176;-45
2022/09/23 10:16:25;;;;;;;4.00;2.63;;;18.00;99.90;;;;;;5063101;28;20172;-46
2022/09/23 10:18:54;;;;;;;5.37;2.00;;;18.00;99.90;;;;;;5045319;28;20188;-45
2022/09/23 10:21:22;;;;;;;4.60;2.30;;;18.20;99.90;;;;;;5062755;28;20215;-45
2022/09/23 10:23:56;;;;;;;2.97;2.10;;;18.40;99.90;;;;;;5044571;28;20204;-43
2022/09/23 10:26:37;;;;;;;7.20;2.40;;;18.50;99.90;;;;;;5062823;28;20520;-44
2022/09/23 10:29:18;;;;;;;4.07;1.90;;;18.60;99.90;;;;;;5061701;28;20160;-45
2022/09/23 10:31:44;;;;;;;2.47;1.83;;;18.80;99.90;;;;;;5061122;28;20219;-44
2022/09/23 10:34:26;;;;;;;5.60;2.17;;;18.80;99.90;;;;;;5042745;28;20532;-45
2022/09/23 10:37:02;;;;;;;3.97;2.00;;;18.80;99.90;;;;;;5041763;28;20772;-45
2022/09/23 10:48:37;;;;;;;2.97;1.93;;;19.20;99.90;;;;;;5060452;28;20203;-45
2022/09/23 10:51:33;;;;;;;2.90;1.80;;;19.20;99.90;;;;;;5042877;28;20211;-46
2022/09/23 10:54:12;;;;;;;7.07;2.00;;;19.30;99.90;;;;;;5060588;28;20160;-46
2022/09/23 10:56:44;;;;;;;3.87;1.83;;;19.30;99.90;;;;;;5060253;28;20298;-45
2022/09/23 10:59:31;;;;;;;2.97;1.80;;;19.40;99.90;;;;;;5060161;28;20196;-45
2022/09/23 11:02:37;;;;;;;4.50;2.10;;;19.50;99.90;;;;;;5059254;28;20190;-44
2022/09/23 11:05:20;;;;;;;4.90;1.90;;;19.50;99.90;;;;;;5025368;28;20619;-46
2022/09/23 11:07:58;;;;;;;2.70;1.83;;;19.70;99.90;;;;;;5058757;28;20288;-45
2022/09/23 11:10:36;;;;;;;3.43;1.83;;;19.80;99.90;;;;;;5059086;28;20277;-47
2022/09/23 11:13:32;;;;;;;4.10;1.87;;;20.00;99.90;;;;;;5058931;28;20160;-46
2022/09/23 11:16:05;;;;;;;6.03;1.87;;;20.10;99.90;;;;;;5059275;28;20165;-45
2022/09/23 11:19:09;;;;;;;4.10;1.50;;;20.20;99.90;;;;;;5058658;28;20196;-47
2022/09/23 11:21:57;;;;;;;2.07;1.70;;;20.30;99.90;;;;;;4978097;28;20192;-46
2022/09/23 11:24:56;;;;;;;4.13;2.07;;;20.30;99.90;;;;;;5058790;28;20176;-46
2022/09/23 11:27:52;;;;;;;4.23;1.67;;;20.30;99.90;;;;;;5058750;28;20207;-45
2022/09/23 11:30:19;;;;;;;7.17;2.13;;;20.40;99.90;;;;;;5059150;28;20196;-45
2022/09/23 11:33:03;;;;;;;2.33;1.60;;;20.50;99.90;;;;;;5059443;28;20184;-46
2022/09/23 11:35:44;;;;;;;3.03;1.53;;;20.60;99.90;;;;;;5058971;28;20249;-45
2022/09/23 11:38:24;;;;;;;2.93;1.57;;;20.70;99.90;;;;;;5058834;28;20282;-46
2022/09/23 11:40:54;;;;;;;5.20;1.70;;;20.80;99.90;;;;;;5059877;28;20164;-46
2022/09/23 11:43:23;;;;;;;3.70;1.40;;;20.90;99.90;;;;;;5056890;28;20246;-46
2022/09/23 11:46:00;;;;;;;4.07;1.50;;;20.90;99.90;;;;;;5056832;28;20689;-41
2022/09/23 11:48:40;;;;;;;4.27;1.90;;;20.90;99.90;;;;;;5056208;28;20200;-46
2022/09/23 11:51:15;;;;;;;7.90;1.80;;;20.80;99.90;;;;;;5057183;28;20200;-40
2022/09/23 11:53:56;;;;;;;3.10;1.60;;;20.70;99.90;;;;;;5054708;28;20190;-41
2022/09/23 11:56:44;;;;;;;5.20;1.40;;;20.80;99.90;;;;;;5054888;28;20223;-41
2022/09/23 11:59:38;;;;;;;2.20;1.33;;;20.90;99.90;;;;;;5055206;28;20562;-42
2022/09/23 12:02:15;;;;;;;1.70;1.23;;;20.90;99.90;;;;;;5055058;28;20535;-42
2022/09/23 12:04:44;;;;;;;3.77;1.40;;;20.90;99.90;;;;;;5053712;28;20173;-40
2022/09/23 12:07:23;;;;;;;4.43;1.33;;;20.90;99.90;;;;;;5054451;28;20204;-38
2022/09/23 12:10:00;;;;;;;2.30;1.10;;;20.90;99.90;;;;;;5054785;28;20638;-41
2022/09/23 12:12:50;;;;;;;7.23;1.40;;;20.90;99.90;;;;;;5054425;28;20172;-39
2022/09/23 12:15:52;;;;;;;2.67;0.93;;;20.80;99.90;;;;;;5054648;28;20314;-42
2022/09/23 12:18:34;;;;;;;4.70;1.00;;;21.00;99.90;;;;;;5054633;28;20230;-41
2022/09/23 12:21:18;;;;;;;1.27;0.97;;;20.90;99.90;;;;;;5054583;28;20243;-42
2022/09/23 12:24:25;;;;;;;2.40;1.00;;;20.90;99.90;;;;;;5054444;28;20179;-41
2022/09/23 12:26:56;;;;;;;3.43;1.00;;;20.90;99.90;;;;;;5054294;28;20703;-40
2022/09/23 12:29:25;;;;;;;2.00;0.93;;;20.90;99.90;;;;;;5054622;28;20175;-42
2022/09/23 12:31:50;;;;;;;3.23;0.93;;;20.90;99.90;;;;;;5053971;28;20226;-42
2022/09/23 12:34:29;;;;;;;1.93;1.10;;;20.80;99.90;;;;;;5053905;28;20634;-42
2022/09/23 12:37:04;;;;;;;1.20;1.00;;;20.80;99.90;;;;;;5035942;28;20734;-40
2022/09/23 12:39:33;;;;;;;2.43;0.97;;;20.70;99.90;;;;;;5054145;28;20187;-42
2022/09/23 12:42:17;;;;;;;2.30;0.80;;;20.70;99.90;;;;;;5053734;28;20179;-41
2022/09/23 12:44:46;;;;;;;2.47;1.30;;;20.60;99.90;;;;;;5053894;28;20180;-40
2022/09/23 12:47:23;;;;;;;4.63;1.00;;;20.60;99.90;;;;;;5035815;28;20660;-41
2022/09/23 12:49:53;;;;;;;2.87;1.10;;;20.50;99.90;;;;;;5054345;28;20601;-41
2022/09/23 12:52:19;;;;;;;3.37;1.20;;;20.40;99.90;;;;;;5053761;28;20172;-41
2022/09/23 12:54:49;;;;;;;5.50;1.30;;;20.30;99.90;;;;;;5053740;28;20263;-42
2022/09/23 12:57:20;;;;;;;4.37;1.10;;;20.20;99.90;;;;;;5053549;28;20200;-42
2022/09/23 13:00:16;;;;;;;4.00;1.20;;;20.10;99.90;;;;;;5035676;28;20271;-41
2022/09/23 13:02:46;;;;;;;2.77;1.00;;;20.10;99.90;;;;;;5036269;28;20303;-42
2022/09/23 13:08:18;;;;;;;1.80;1.20;;;20.00;99.90;;;;;;5053741;28;20206;-42
2022/09/23 13:10:56;;;;;;;2.87;1.30;;;20.00;99.90;;;;;;5053442;28;20195;-42
2022/09/23 13:13:24;;;;;;;1.37;0.90;;;20.00;99.90;;;;;;5053733;28;20168;-42
2022/09/23 13:15:52;;;;;;;3.73;1.13;;;20.00;99.90;;;;;;5053245;28;20172;-40
2022/09/23 13:18:17;;;;;;;2.40;1.40;;;20.00;99.90;;;;;;5035792;28;20196;-43
2022/09/23 13:20:44;;;;;;;2.80;1.40;;;20.00;99.90;;;;;;5053783;28;20550;-42
2022/09/23 13:23:24;;;;;;;1.67;1.00;;;19.90;99.90;;;;;;5053654;28;20283;-41
2022/09/23 13:25:54;;;;;;;2.60;1.07;;;19.90;99.90;;;;;;5036417;28;20184;-41
2022/09/23 13:28:35;;;;;;;2.07;1.07;;;19.80;99.90;;;;;;5053934;28;20536;-39
2022/09/23 13:31:11;;;;;;;5.40;1.30;;;19.80;99.90;;;;;;5054032;28;20200;-40
2022/09/23 13:33:50;;;;;;;1.80;1.10;;;19.70;99.90;;;;;;5054093;28;20231;-41
2022/09/23 13:36:17;;;;;;;6.60;1.07;;;19.70;99.90;;;;;;5053696;28;20188;-42
2022/09/23 13:38:45;;;;;;;3.13;1.10;;;19.60;99.90;;;;;;5053557;28;20195;-40
2022/09/23 13:41:10;;;;;;;1.37;0.90;;;19.60;99.90;;;;;;5053995;28;20192;-40
2022/09/23 13:43:47;;;;;;;2.43;1.20;;;19.70;99.90;;;;;;5053447;28;20176;-41